createdAt,value
2019-02-14T00:01:20.496Z,3.52
2019-02-14T00:03:50.939Z,3.59
2019-02-14T00:06:21.492Z,3.36
2019-02-14T00:08:51.943Z,3.47
2019-02-14T00:11:22.430Z,3.45
2019-02-14T00:13:52.874Z,3.47
2019-02-14T00:16:23.323Z,3.54
2019-02-14T00:18:53.812Z,3.56
2019-02-14T00:21:24.328Z,3.62
2019-02-14T00:23:54.764Z,3.66
2019-02-14T00:26:25.213Z,3.62
2019-02-14T00:28:55.683Z,3.62
2019-02-14T00:31:26.165Z,3.62
2019-02-14T00:33:56.651Z,3.47
2019-02-14T00:36:27.096Z,3.52
2019-02-14T00:38:57.605Z,3.55
2019-02-14T00:41:28.099Z,3.56
2019-02-14T00:43:58.588Z,3.63
2019-02-14T00:46:29.043Z,3.53
2019-02-14T00:48:59.553Z,3.49
2019-02-14T00:51:30.052Z,3.43
2019-02-14T00:54:00.552Z,3.47
2019-02-14T00:56:31.003Z,3.51
2019-02-14T00:59:02.633Z,3.43
2019-02-14T01:01:32.978Z,3.41
2019-02-14T01:04:03.379Z,3.42
2019-02-14T01:06:33.827Z,3.44
2019-02-14T01:09:04.665Z,3.40
2019-02-14T01:11:35.160Z,3.34
2019-02-14T01:14:05.807Z,3.31
2019-02-14T01:16:36.292Z,3.42
2019-02-14T01:19:06.779Z,3.48
2019-02-14T01:21:37.219Z,3.41
2019-02-14T01:24:07.694Z,3.44
2019-02-14T01:26:38.200Z,3.43
2019-02-14T01:29:08.633Z,3.43
2019-02-14T01:31:39.132Z,3.43
2019-02-14T01:34:09.582Z,3.37
2019-02-14T01:36:40.053Z,3.47
2019-02-14T01:39:10.498Z,3.33
2019-02-14T01:41:40.961Z,3.23
2019-02-14T01:44:11.419Z,3.40
2019-02-14T01:46:41.866Z,3.38
2019-02-14T01:49:12.277Z,3.26
2019-02-14T01:51:42.782Z,3.29
2019-02-14T01:54:13.235Z,3.38
2019-02-14T01:56:43.684Z,3.40
2019-02-14T01:59:14.151Z,3.33
2019-02-14T02:01:44.640Z,3.31
2019-02-14T02:04:15.167Z,3.35
2019-02-14T02:06:45.660Z,3.30
2019-02-14T02:09:16.113Z,3.33
2019-02-14T02:11:46.599Z,3.31
2019-02-14T02:14:17.045Z,3.28
2019-02-14T02:16:47.638Z,3.30
2019-02-14T02:19:18.104Z,2.36
2019-02-14T02:21:48.603Z,3.22
2019-02-14T02:24:19.102Z,3.23
2019-02-14T02:26:49.607Z,3.28
2019-02-14T02:29:20.114Z,3.25
2019-02-14T02:31:50.609Z,3.24
2019-02-14T02:34:21.087Z,3.18
2019-02-14T02:36:51.579Z,3.25
2019-02-14T02:39:22.037Z,3.25
2019-02-14T02:41:52.547Z,3.25
2019-02-14T02:44:22.995Z,3.27
2019-02-14T02:46:53.462Z,3.36
2019-02-14T02:49:23.971Z,3.33
2019-02-14T02:51:54.424Z,3.21
2019-02-14T02:54:24.878Z,3.29
2019-02-14T02:56:55.342Z,3.34
2019-02-14T02:59:25.840Z,3.27
2019-02-14T03:01:56.293Z,3.13
2019-02-14T03:04:26.779Z,3.24
2019-02-14T03:06:57.239Z,3.23
2019-02-14T03:09:27.692Z,3.23
2019-02-14T03:11:58.174Z,3.24
2019-02-14T03:14:28.682Z,3.23
2019-02-14T03:16:59.216Z,3.18
2019-02-14T03:19:29.680Z,3.19
2019-02-14T03:22:00.221Z,3.26
2019-02-14T03:24:30.679Z,3.35
2019-02-14T03:27:01.177Z,3.33
2019-02-14T03:29:31.790Z,3.28
2019-02-14T03:32:02.276Z,3.34
2019-02-14T03:34:32.723Z,3.38
2019-02-14T03:37:03.230Z,3.33
2019-02-14T03:39:33.711Z,3.36
2019-02-14T03:42:04.183Z,3.27
2019-02-14T03:44:34.811Z,3.40
2019-02-14T03:47:05.251Z,3.32
2019-02-14T03:49:35.748Z,3.43
2019-02-14T03:52:06.199Z,3.42
2019-02-14T03:54:36.645Z,3.27
2019-02-14T03:57:07.137Z,3.41
2019-02-14T03:59:37.625Z,3.36
2019-02-14T04:02:08.112Z,3.36
2019-02-14T04:04:38.580Z,3.38
2019-02-14T04:07:09.238Z,3.41
2019-02-14T04:09:39.696Z,3.45
2019-02-14T04:12:10.200Z,3.36
2019-02-14T04:14:40.655Z,3.43
2019-02-14T04:17:11.246Z,3.32
2019-02-14T04:19:41.738Z,3.37
2019-02-14T04:22:12.304Z,3.41
2019-02-14T04:24:42.819Z,3.38
2019-02-14T04:27:13.267Z,3.42
2019-02-14T04:29:43.748Z,3.51
2019-02-14T04:32:14.202Z,3.34
2019-02-14T04:34:44.679Z,3.43
2019-02-14T04:37:15.176Z,3.44
2019-02-14T04:39:45.669Z,3.54
2019-02-14T04:42:16.134Z,3.38
2019-02-14T04:44:46.626Z,3.41
2019-02-14T04:47:17.067Z,3.48
2019-02-14T04:49:47.520Z,3.45
2019-02-14T04:52:18.009Z,3.50
2019-02-14T04:54:48.453Z,3.34
2019-02-14T04:57:18.948Z,3.47
2019-02-14T04:59:49.403Z,3.37
2019-02-14T05:02:19.925Z,3.37
2019-02-14T05:04:50.393Z,3.37
2019-02-14T05:07:20.889Z,3.42
2019-02-14T05:09:51.350Z,3.29
2019-02-14T05:12:21.856Z,3.30
2019-02-14T05:14:52.330Z,3.29
2019-02-14T05:17:22.839Z,3.23
2019-02-14T05:19:53.315Z,3.33
2019-02-14T05:22:23.927Z,3.11
2019-02-14T05:24:54.368Z,3.06
2019-02-14T05:27:24.821Z,3.17
2019-02-14T05:29:55.330Z,3.28
2019-02-14T05:32:25.782Z,3.22
2019-02-14T05:34:56.226Z,3.17
2019-02-14T05:37:26.726Z,3.25
2019-02-14T05:39:57.213Z,3.41
2019-02-14T05:42:27.668Z,3.42
2019-02-14T05:44:58.155Z,3.43
2019-02-14T05:47:28.625Z,3.54
2019-02-14T05:49:59.124Z,3.58
2019-02-14T05:52:29.580Z,3.51
2019-02-14T05:55:00.129Z,3.51
2019-02-14T05:57:30.577Z,3.55
2019-02-14T06:00:01.071Z,3.64
2019-02-14T06:02:34.770Z,3.73
2019-02-14T06:05:05.544Z,3.79
2019-02-14T06:07:36.082Z,3.81
2019-02-14T06:10:07.681Z,3.90
2019-02-14T06:12:38.527Z,4.04
2019-02-14T06:15:09.827Z,4.26
2019-02-14T06:17:40.506Z,4.18
2019-02-14T06:20:11.018Z,4.50
2019-02-14T06:22:41.680Z,4.67
2019-02-14T06:25:12.595Z,4.75
2019-02-14T06:27:43.130Z,4.64
2019-02-14T06:30:14.338Z,4.67
2019-02-14T06:32:44.864Z,4.67
2019-02-14T06:35:15.572Z,4.68
2019-02-14T06:37:46.085Z,4.66
2019-02-14T06:40:16.580Z,4.66
2019-02-14T06:42:47.087Z,4.78
2019-02-14T06:45:17.704Z,4.96
2019-02-14T06:47:48.165Z,4.98
2019-02-14T06:50:18.686Z,5.05
2019-02-14T06:52:49.155Z,5.06
2019-02-14T06:55:19.657Z,5.13
2019-02-14T06:57:50.131Z,5.08
2019-02-14T07:00:20.668Z,5.08
2019-02-14T07:02:51.185Z,5.02
2019-02-14T07:05:23.185Z,5.09
2019-02-14T07:07:53.875Z,5.32
2019-02-14T07:10:25.007Z,5.29
2019-02-14T07:12:55.476Z,5.31
2019-02-14T07:15:25.977Z,5.50
2019-02-14T07:17:56.470Z,5.51
2019-02-14T07:20:27.023Z,5.51
2019-02-14T07:22:57.498Z,5.50
2019-02-14T07:25:27.971Z,5.60
2019-02-14T07:27:58.489Z,5.60
2019-02-14T07:30:28.995Z,5.76
2019-02-14T07:32:59.486Z,5.71
2019-02-14T07:35:29.944Z,5.88
2019-02-14T07:38:00.680Z,5.89
2019-02-14T07:40:31.165Z,6.05
2019-02-14T07:43:01.688Z,6.02
2019-02-14T07:45:32.378Z,5.94
2019-02-14T07:48:02.920Z,5.99
2019-02-14T07:50:33.564Z,6.10
2019-02-14T07:53:04.066Z,6.10
2019-02-14T07:55:34.603Z,6.26
2019-02-14T07:58:05.109Z,6.11
2019-02-14T08:00:35.692Z,6.02
2019-02-14T08:03:06.183Z,6.22
2019-02-14T08:05:36.680Z,6.13
2019-02-14T08:08:07.228Z,6.19
2019-02-14T08:10:39.752Z,6.17
2019-02-14T08:13:10.232Z,5.97
2019-02-14T08:15:40.691Z,6.04
2019-02-14T08:18:11.292Z,6.12
2019-02-14T08:20:41.822Z,6.12
2019-02-14T08:23:12.311Z,6.19
2019-02-14T08:25:42.809Z,6.37
2019-02-14T08:28:13.313Z,6.49
2019-02-14T08:30:43.789Z,6.49
2019-02-14T08:33:14.293Z,6.47
2019-02-14T08:35:44.845Z,6.75
2019-02-14T08:38:15.377Z,6.83
2019-02-14T08:40:45.858Z,6.89
2019-02-14T08:43:17.715Z,6.94
2019-02-14T08:45:48.227Z,6.75
2019-02-14T08:48:18.888Z,6.94
2019-02-14T08:50:49.393Z,7.16
2019-02-14T08:53:19.877Z,7.16
2019-02-14T08:55:50.392Z,7.03
2019-02-14T08:58:20.887Z,7.12
2019-02-14T09:00:51.497Z,7.23
2019-02-14T09:03:22.032Z,7.14
2019-02-14T09:05:52.538Z,7.38
2019-02-14T09:08:23.081Z,7.40
2019-02-14T09:10:53.602Z,7.42
2019-02-14T09:13:24.125Z,7.56
2019-02-14T09:15:54.587Z,7.49
2019-02-14T09:18:25.109Z,7.60
2019-02-14T09:20:55.617Z,7.65
2019-02-14T09:23:26.149Z,7.78
2019-02-14T09:25:56.713Z,6.98
2019-02-14T09:28:27.215Z,7.74
2019-02-14T09:30:57.709Z,7.90
2019-02-14T09:33:28.172Z,8.09
2019-02-14T09:35:58.697Z,8.01
2019-02-14T09:38:29.162Z,8.09
2019-02-14T09:40:59.659Z,8.27
2019-02-14T09:43:30.305Z,8.30
2019-02-14T09:46:00.855Z,8.28
2019-02-14T09:48:31.376Z,8.28
2019-02-14T09:51:01.927Z,8.45
2019-02-14T09:53:32.419Z,8.45
2019-02-14T09:56:03.036Z,8.41
2019-02-14T09:58:33.594Z,8.47
2019-02-14T10:01:04.133Z,8.69
2019-02-14T10:03:34.599Z,8.81
2019-02-14T10:06:05.124Z,8.43
2019-02-14T10:08:35.615Z,8.52
2019-02-14T10:11:07.064Z,8.62
2019-02-14T10:13:37.619Z,8.47
2019-02-14T10:16:08.082Z,8.64
2019-02-14T10:18:38.587Z,8.66
2019-02-14T10:21:09.080Z,8.76
2019-02-14T10:23:39.573Z,8.80
2019-02-14T10:26:10.106Z,8.94
2019-02-14T10:28:40.667Z,8.94
2019-02-14T10:31:11.124Z,8.98
2019-02-14T10:33:41.591Z,9.16
2019-02-14T10:36:12.087Z,9.20
2019-02-14T10:38:42.553Z,9.26
2019-02-14T10:41:13.091Z,9.27
2019-02-14T10:43:48.830Z,9.27
2019-02-14T10:46:15.773Z,9.31
2019-02-14T10:48:46.276Z,9.15
2019-02-14T10:51:16.746Z,9.15
2019-02-14T10:53:47.254Z,8.60
2019-02-14T10:56:17.807Z,9.36
2019-02-14T10:58:48.308Z,9.47
2019-02-14T11:01:18.832Z,9.61
2019-02-14T11:03:49.316Z,9.62
2019-02-14T11:06:19.759Z,9.68
2019-02-14T11:08:50.267Z,9.73
2019-02-14T11:11:20.744Z,9.69
2019-02-14T11:13:51.258Z,9.78
2019-02-14T11:16:21.734Z,9.69
2019-02-14T11:18:52.336Z,9.66
2019-02-14T11:21:22.836Z,9.73
2019-02-14T11:23:53.295Z,9.62
2019-02-14T11:26:23.809Z,9.70
2019-02-14T11:28:54.309Z,9.95
2019-02-14T11:31:24.803Z,10.10
2019-02-14T11:33:55.352Z,10.07
2019-02-14T11:36:25.868Z,10.00
2019-02-14T11:38:56.320Z,9.89
2019-02-14T11:41:27.290Z,10.02
2019-02-14T11:43:58.293Z,10.13
2019-02-14T11:46:28.770Z,10.12
2019-02-14T11:48:59.283Z,9.91
2019-02-14T11:51:31.174Z,10.13
2019-02-14T11:54:03.753Z,10.14
2019-02-14T11:56:34.272Z,10.22
2019-02-14T11:59:06.987Z,10.27
2019-02-14T12:01:41.051Z,10.45
2019-02-14T12:04:11.564Z,10.56
2019-02-14T12:06:42.148Z,10.56
2019-02-14T12:09:12.723Z,10.23
2019-02-14T12:11:43.235Z,10.30
2019-02-14T12:14:13.701Z,10.35
2019-02-14T12:16:44.172Z,10.36
2019-02-14T12:19:14.680Z,10.50
2019-02-14T12:21:45.271Z,10.50
2019-02-14T12:24:16.316Z,10.56
2019-02-14T12:26:46.825Z,10.67
2019-02-14T12:29:17.349Z,10.75
2019-02-14T12:31:47.868Z,10.76
2019-02-14T12:34:18.383Z,10.74
2019-02-14T12:36:48.888Z,10.66
2019-02-14T12:39:19.397Z,10.72
2019-02-14T12:41:49.889Z,10.73
2019-02-14T12:44:20.399Z,10.72
2019-02-14T12:46:50.901Z,10.73
2019-02-14T12:49:21.386Z,10.75
2019-02-14T12:51:51.882Z,10.85
2019-02-14T12:54:23.340Z,10.96
2019-02-14T12:56:53.902Z,11.02
2019-02-14T12:59:24.496Z,10.95
2019-02-14T13:01:55.351Z,11.05
2019-02-14T13:04:25.824Z,10.99
2019-02-14T13:06:56.328Z,11.01
2019-02-14T13:09:26.819Z,11.11
2019-02-14T13:11:57.365Z,11.02
2019-02-14T13:14:28.154Z,10.94
2019-02-14T13:16:58.671Z,11.01
2019-02-14T13:19:29.354Z,11.09
2019-02-14T13:21:59.883Z,11.23
2019-02-14T13:24:30.325Z,11.36
2019-02-14T13:27:00.861Z,11.54
2019-02-14T13:29:31.415Z,11.49
2019-02-14T13:32:01.877Z,11.28
2019-02-14T13:34:32.388Z,11.06
2019-02-14T13:37:02.938Z,11.10
2019-02-14T13:39:33.450Z,11.14
2019-02-14T13:42:03.991Z,11.22
2019-02-14T13:44:34.495Z,11.02
2019-02-14T13:47:05.048Z,10.80
2019-02-14T13:49:35.563Z,10.93
2019-02-14T13:52:06.180Z,10.87
2019-02-14T13:54:36.664Z,10.76
2019-02-14T13:57:07.261Z,10.73
2019-02-14T13:59:38.129Z,10.64
2019-02-14T14:02:08.587Z,10.61
2019-02-14T14:04:39.093Z,10.64
2019-02-14T14:07:09.553Z,10.64
2019-02-14T14:09:40.005Z,10.62
2019-02-14T14:12:10.511Z,10.40
2019-02-14T14:14:41.279Z,10.39
2019-02-14T14:17:11.809Z,10.34
2019-02-14T14:19:42.275Z,10.34
2019-02-14T14:22:12.911Z,10.20
2019-02-14T14:24:43.448Z,10.29
2019-02-14T14:27:14.923Z,10.38
2019-02-14T14:29:45.562Z,10.47
2019-02-14T14:32:16.118Z,10.31
2019-02-14T14:34:46.866Z,10.18
2019-02-14T14:37:17.367Z,9.96
2019-02-14T14:39:49.004Z,10.05
2019-02-14T14:42:36.962Z,10.05
2019-02-14T14:45:09.390Z,10.00
2019-02-14T14:47:39.882Z,10.03
2019-02-14T14:50:10.608Z,10.02
2019-02-14T14:52:41.184Z,10.05
2019-02-14T14:55:11.814Z,10.04
2019-02-14T14:57:42.434Z,9.79
2019-02-14T15:00:13.682Z,9.94
2019-02-14T15:02:44.246Z,10.03
2019-02-14T15:05:17.473Z,9.92
2019-02-14T15:07:47.986Z,9.98
2019-02-14T15:10:18.547Z,10.10
2019-02-14T15:12:49.151Z,10.04
2019-02-14T15:15:19.639Z,9.99
2019-02-14T15:17:50.446Z,10.07
2019-02-14T15:20:21.191Z,10.01
2019-02-14T15:22:51.835Z,9.83
2019-02-14T15:25:24.822Z,9.86
2019-02-14T15:27:55.855Z,9.87
2019-02-14T15:30:26.630Z,9.90
2019-02-14T15:32:57.588Z,8.48
2019-02-14T15:35:28.249Z,9.77
2019-02-14T15:38:01.441Z,9.86
2019-02-14T15:40:32.251Z,9.75
2019-02-14T15:43:05.561Z,9.64
2019-02-14T15:45:36.075Z,9.63
2019-02-14T15:48:06.588Z,9.57
2019-02-14T15:50:37.060Z,9.45
2019-02-14T15:53:07.822Z,9.39
2019-02-14T15:55:38.984Z,8.99
2019-02-14T15:58:10.453Z,9.13
2019-02-14T16:00:41.113Z,9.07
2019-02-14T16:03:11.621Z,9.04
2019-02-14T16:05:42.688Z,9.19
2019-02-14T16:08:13.327Z,9.18
2019-02-14T16:10:44.005Z,9.25
2019-02-14T16:13:14.509Z,9.28
2019-02-14T16:15:45.020Z,9.37
2019-02-14T16:18:15.541Z,9.28
2019-02-14T16:20:46.103Z,8.91
2019-02-14T16:23:16.618Z,9.14
2019-02-14T16:25:47.088Z,9.18
2019-02-14T16:28:17.666Z,9.00
2019-02-14T16:30:48.097Z,9.09
2019-02-14T16:33:18.556Z,9.02
2019-02-14T16:35:49.051Z,9.22
2019-02-14T16:38:19.558Z,9.30
2019-02-14T16:40:50.018Z,9.33
2019-02-14T16:43:20.533Z,9.40
2019-02-14T16:45:51.055Z,9.35
2019-02-14T16:48:21.523Z,9.41
2019-02-14T16:50:52.024Z,9.38
2019-02-14T16:53:22.471Z,9.42
2019-02-14T16:56:01.683Z,9.24
2019-02-14T16:58:25.103Z,9.28
2019-02-14T17:00:55.588Z,9.31
2019-02-14T17:03:26.048Z,9.22
2019-02-14T17:05:56.553Z,9.20
2019-02-14T17:08:27.005Z,9.17
2019-02-14T17:10:57.453Z,9.10
2019-02-14T17:13:27.957Z,9.11
2019-02-14T17:15:58.424Z,9.18
2019-02-14T17:18:28.882Z,9.28
2019-02-14T17:20:59.402Z,9.25
2019-02-14T17:23:29.848Z,9.28
2019-02-14T17:26:00.363Z,9.28
2019-02-14T17:28:30.829Z,9.30
2019-02-14T17:31:01.300Z,9.27
2019-02-14T17:33:31.809Z,9.25
2019-02-14T17:36:02.285Z,9.16
2019-02-14T17:38:32.777Z,9.06
2019-02-14T17:41:03.285Z,9.14
2019-02-14T17:43:33.737Z,9.13
2019-02-14T17:46:04.338Z,9.10
2019-02-14T17:48:34.848Z,9.12
2019-02-14T17:51:06.627Z,9.09
2019-02-14T17:53:38.445Z,9.00
2019-02-14T17:56:28.391Z,8.91
2019-02-14T17:59:18.110Z,8.95
2019-02-14T18:01:48.565Z,8.92
2019-02-14T18:04:19.053Z,8.89
2019-02-14T18:06:49.494Z,8.88
2019-02-14T18:09:20.008Z,8.88
2019-02-14T18:11:50.517Z,8.98
2019-02-14T18:14:20.984Z,8.92
2019-02-14T18:16:51.500Z,8.99
2019-02-14T18:19:21.965Z,8.88
2019-02-14T18:21:52.432Z,8.82
2019-02-14T18:24:22.887Z,8.81
2019-02-14T18:26:53.398Z,8.84
2019-02-14T18:29:23.916Z,8.90
2019-02-14T18:31:54.423Z,8.93
2019-02-14T18:34:24.966Z,8.94
2019-02-14T18:36:55.421Z,8.78
2019-02-14T18:39:25.904Z,8.77
2019-02-14T18:41:56.416Z,8.61
2019-02-14T18:44:26.883Z,8.66
2019-02-14T18:46:57.417Z,8.53
2019-02-14T18:49:27.880Z,8.40
2019-02-14T18:51:58.343Z,8.43
2019-02-14T18:54:28.850Z,8.42
2019-02-14T18:56:59.304Z,8.01
2019-02-14T18:59:29.789Z,8.04
2019-02-14T19:02:00.277Z,8.05
2019-02-14T19:04:30.755Z,7.96
2019-02-14T19:07:01.362Z,7.80
2019-02-14T19:09:31.828Z,7.81
2019-02-14T19:12:02.291Z,7.70
2019-02-14T19:14:32.845Z,7.49
2019-02-14T19:17:03.425Z,7.67
2019-02-14T19:19:33.938Z,7.52
2019-02-14T19:22:04.507Z,7.53
2019-02-14T19:24:35.043Z,7.48
2019-02-14T19:27:05.514Z,7.52
2019-02-14T19:29:36.428Z,7.48
2019-02-14T19:32:06.997Z,7.43
2019-02-14T19:34:37.458Z,7.39
2019-02-14T19:37:07.974Z,7.26
2019-02-14T19:39:38.431Z,7.34
2019-02-14T19:42:08.941Z,7.24
2019-02-14T19:44:39.425Z,7.31
2019-02-14T19:47:09.886Z,7.37
2019-02-14T19:49:40.511Z,7.34
2019-02-14T19:52:12.035Z,7.28
2019-02-14T19:54:42.574Z,7.14
2019-02-14T19:57:13.081Z,7.12
2019-02-14T19:59:43.542Z,6.96
2019-02-14T20:02:14.050Z,6.96
2019-02-14T20:04:44.568Z,6.98
2019-02-14T20:07:15.129Z,7.06
2019-02-14T20:09:45.650Z,7.00
2019-02-14T20:12:16.123Z,7.20
2019-02-14T20:14:46.651Z,7.09
2019-02-14T20:17:17.822Z,7.08
2019-02-14T20:19:48.389Z,7.09
2019-02-14T20:22:18.866Z,7.18
2019-02-14T20:24:49.404Z,7.19
2019-02-14T20:27:19.879Z,7.20
2019-02-14T20:29:50.421Z,7.30
2019-02-14T20:32:20.915Z,7.18
2019-02-14T20:34:51.420Z,7.02
2019-02-14T20:37:21.941Z,7.25
2019-02-14T20:39:52.394Z,7.07
2019-02-14T20:42:23.042Z,7.12
2019-02-14T20:44:54.997Z,7.06
2019-02-14T20:47:25.862Z,7.16
2019-02-14T20:49:56.908Z,7.12
2019-02-14T20:52:28.023Z,7.00
2019-02-14T20:54:58.847Z,6.94
2019-02-14T20:57:29.307Z,6.80
2019-02-14T20:59:59.940Z,6.97
2019-02-14T21:02:30.441Z,6.69
2019-02-14T21:05:00.907Z,6.86
2019-02-14T21:07:31.389Z,6.86
2019-02-14T21:10:01.872Z,6.69
2019-02-14T21:12:32.373Z,6.79
2019-02-14T21:15:02.953Z,6.69
2019-02-14T21:17:33.476Z,6.48
2019-02-14T21:20:03.950Z,6.28
2019-02-14T21:22:34.480Z,6.55
2019-02-14T21:25:05.105Z,6.67
2019-02-14T21:27:35.634Z,6.68
2019-02-14T21:30:06.313Z,6.47
2019-02-14T21:32:36.819Z,6.18
2019-02-14T21:35:07.707Z,5.64
2019-02-14T21:37:38.258Z,5.66
2019-02-14T21:40:10.293Z,5.58
2019-02-14T21:42:40.903Z,5.53
2019-02-14T21:45:12.551Z,5.66
2019-02-14T21:47:43.043Z,5.80
2019-02-14T21:50:13.884Z,5.80
2019-02-14T21:52:44.404Z,5.90
2019-02-14T21:55:15.027Z,5.98
2019-02-14T21:57:45.527Z,6.10
2019-02-14T22:00:18.049Z,6.23
2019-02-14T22:02:49.001Z,6.34
2019-02-14T22:05:24.389Z,6.38
2019-02-14T22:07:51.991Z,6.35
2019-02-14T22:10:22.765Z,6.39
2019-02-14T22:12:53.314Z,6.42
2019-02-14T22:15:23.994Z,6.25
2019-02-14T22:17:54.538Z,6.09
2019-02-14T22:20:24.992Z,6.21
2019-02-14T22:22:55.432Z,6.31
2019-02-14T22:25:25.999Z,6.36
2019-02-14T22:27:56.536Z,6.41
2019-02-14T22:30:27.037Z,6.47
2019-02-14T22:32:57.511Z,6.52
2019-02-14T22:35:28.130Z,6.55
2019-02-14T22:37:58.604Z,6.53
2019-02-14T22:40:29.109Z,6.46
2019-02-14T22:42:59.638Z,6.53
2019-02-14T22:45:30.181Z,6.43
2019-02-14T22:48:00.665Z,6.39
2019-02-14T22:50:31.183Z,6.43
2019-02-14T22:53:01.674Z,6.46
2019-02-14T22:55:32.189Z,6.35
2019-02-14T22:58:02.706Z,6.34
2019-02-14T23:00:45.686Z,6.24
2019-02-14T23:03:16.375Z,6.23
2019-02-14T23:05:46.931Z,6.01
2019-02-14T23:08:17.447Z,6.04
2019-02-14T23:10:48.014Z,6.11
2019-02-14T23:13:18.488Z,6.02
2019-02-14T23:15:49.002Z,6.03
2019-02-14T23:18:19.490Z,5.99
2019-02-14T23:20:49.929Z,5.88
2019-02-14T23:23:20.537Z,5.51
2019-02-14T23:25:50.987Z,5.68
2019-02-14T23:28:21.502Z,5.67
2019-02-14T23:30:52.003Z,5.73
2019-02-14T23:33:22.473Z,5.74
2019-02-14T23:35:53.001Z,5.82
2019-02-14T23:38:23.512Z,5.93
2019-02-14T23:40:54.045Z,5.97
2019-02-14T23:43:24.529Z,5.98
2019-02-14T23:45:55.000Z,6.01
2019-02-14T23:48:25.500Z,6.03
2019-02-14T23:50:55.956Z,5.99
2019-02-14T23:53:26.513Z,5.82
2019-02-14T23:55:57.003Z,5.81
2019-02-14T23:58:27.483Z,5.67
